sensor_id;sensor_type;location;lat;lon;timestamp;temperature;humidity
22578;DHT22;11455;52.390;13.028;2022-08-03T00:01:20;22.40;1.00
22578;DHT22;11455;52.390;13.028;2022-08-03T00:03:46;22.40;1.00
22578;DHT22;11455;52.390;13.028;2022-08-03T00:06:12;22.40;1.00
22578;DHT22;11455;52.390;13.028;2022-08-03T00:08:37;22.40;1.00
22578;DHT22;11455;52.390;13.028;2022-08-03T00:11:05;22.30;1.00
22578;DHT22;11455;52.390;13.028;2022-08-03T00:13:31;22.40;1.00
22578;DHT22;11455;52.390;13.028;2022-08-03T00:15:57;22.30;1.00
22578;DHT22;11455;52.390;13.028;2022-08-03T00:18:23;22.30;1.00
22578;DHT22;11455;52.390;13.028;2022-08-03T00:20:48;22.20;1.00
22578;DHT22;11455;52.390;13.028;2022-08-03T00:23:14;22.20;1.00
22578;DHT22;11455;52.390;13.028;2022-08-03T00:25:40;22.20;1.00
22578;DHT22;11455;52.390;13.028;2022-08-03T00:28:05;22.20;1.00
22578;DHT22;11455;52.390;13.028;2022-08-03T00:30:31;22.30;1.00
22578;DHT22;11455;52.390;13.028;2022-08-03T00:32:57;22.40;1.00
22578;DHT22;11455;52.390;13.028;2022-08-03T00:35:23;22.40;1.00
22578;DHT22;11455;52.390;13.028;2022-08-03T00:37:49;22.60;1.00
22578;DHT22;11455;52.390;13.028;2022-08-03T00:40:17;22.60;1.00
22578;DHT22;11455;52.390;13.028;2022-08-03T00:42:47;22.70;1.00
22578;DHT22;11455;52.390;13.028;2022-08-03T00:45:15;22.70;1.00
22578;DHT22;11455;52.390;13.028;2022-08-03T00:47:41;22.70;1.00
22578;DHT22;11455;52.390;13.028;2022-08-03T00:50:07;22.70;1.00
22578;DHT22;11455;52.390;13.028;2022-08-03T00:52:33;22.60;1.00
22578;DHT22;11455;52.390;13.028;2022-08-03T00:54:59;22.70;1.00
22578;DHT22;11455;52.390;13.028;2022-08-03T00:57:25;22.70;1.00
22578;DHT22;11455;52.390;13.028;2022-08-03T00:59:51;22.80;1.00
22578;DHT22;11455;52.390;13.028;2022-08-03T01:02:16;22.80;1.00
22578;DHT22;11455;52.390;13.028;2022-08-03T01:04:42;22.80;1.00
22578;DHT22;11455;52.390;13.028;2022-08-03T01:07:18;22.90;1.00
22578;DHT22;11455;52.390;13.028;2022-08-03T01:12:21;22.90;1.00
22578;DHT22;11455;52.390;13.028;2022-08-03T01:14:50;23.00;1.00
22578;DHT22;11455;52.390;13.028;2022-08-03T01:19:50;22.90;1.00
22578;DHT22;11455;52.390;13.028;2022-08-03T01:25:02;23.00;1.00
22578;DHT22;11455;52.390;13.028;2022-08-03T01:27:37;22.90;1.00
22578;DHT22;11455;52.390;13.028;2022-08-03T01:30:05;23.00;1.00
22578;DHT22;11455;52.390;13.028;2022-08-03T01:32:37;23.00;1.00
22578;DHT22;11455;52.390;13.028;2022-08-03T01:35:11;23.00;1.00
22578;DHT22;11455;52.390;13.028;2022-08-03T01:37:41;23.00;1.00
22578;DHT22;11455;52.390;13.028;2022-08-03T01:40:08;23.10;1.00
22578;DHT22;11455;52.390;13.028;2022-08-03T01:42:35;23.10;1.00
22578;DHT22;11455;52.390;13.028;2022-08-03T01:45:01;23.10;1.00
22578;DHT22;11455;52.390;13.028;2022-08-03T01:47:28;23.20;1.00
22578;DHT22;11455;52.390;13.028;2022-08-03T01:49:55;23.10;1.00
22578;DHT22;11455;52.390;13.028;2022-08-03T01:52:22;23.20;1.00
22578;DHT22;11455;52.390;13.028;2022-08-03T01:54:49;23.20;1.00
22578;DHT22;11455;52.390;13.028;2022-08-03T01:57:15;23.20;1.00
22578;DHT22;11455;52.390;13.028;2022-08-03T01:59:42;23.10;1.00
22578;DHT22;11455;52.390;13.028;2022-08-03T02:02:11;23.10;1.00
22578;DHT22;11455;52.390;13.028;2022-08-03T02:04:37;23.00;1.00
22578;DHT22;11455;52.390;13.028;2022-08-03T02:07:05;23.00;1.00
22578;DHT22;11455;52.390;13.028;2022-08-03T02:09:32;23.00;1.00
22578;DHT22;11455;52.390;13.028;2022-08-03T02:11:58;23.00;1.00
22578;DHT22;11455;52.390;13.028;2022-08-03T02:14:25;23.00;1.00
22578;DHT22;11455;52.390;13.028;2022-08-03T02:16:52;23.00;1.00
22578;DHT22;11455;52.390;13.028;2022-08-03T02:19:18;23.00;1.00
22578;DHT22;11455;52.390;13.028;2022-08-03T02:21:44;23.10;1.00
22578;DHT22;11455;52.390;13.028;2022-08-03T02:24:11;23.10;1.00
22578;DHT22;11455;52.390;13.028;2022-08-03T02:26:37;23.20;1.00
22578;DHT22;11455;52.390;13.028;2022-08-03T02:29:15;23.20;1.00
22578;DHT22;11455;52.390;13.028;2022-08-03T02:31:43;23.20;1.00
22578;DHT22;11455;52.390;13.028;2022-08-03T02:34:11;23.20;1.00
22578;DHT22;11455;52.390;13.028;2022-08-03T02:36:38;23.20;1.00
22578;DHT22;11455;52.390;13.028;2022-08-03T02:39:04;23.20;1.00
22578;DHT22;11455;52.390;13.028;2022-08-03T02:41:30;23.20;1.00
22578;DHT22;11455;52.390;13.028;2022-08-03T02:43:58;23.20;1.00
22578;DHT22;11455;52.390;13.028;2022-08-03T02:46:27;23.10;1.00
22578;DHT22;11455;52.390;13.028;2022-08-03T02:48:54;23.10;1.00
22578;DHT22;11455;52.390;13.028;2022-08-03T02:51:21;23.00;1.00
22578;DHT22;11455;52.390;13.028;2022-08-03T02:53:46;22.90;1.00
22578;DHT22;11455;52.390;13.028;2022-08-03T02:56:12;22.80;1.00
22578;DHT22;11455;52.390;13.028;2022-08-03T02:58:39;22.70;1.00
22578;DHT22;11455;52.390;13.028;2022-08-03T03:01:07;22.60;1.00
22578;DHT22;11455;52.390;13.028;2022-08-03T03:03:34;22.50;1.00
22578;DHT22;11455;52.390;13.028;2022-08-03T03:06:00;22.50;1.00
22578;DHT22;11455;52.390;13.028;2022-08-03T03:08:26;22.50;1.00
22578;DHT22;11455;52.390;13.028;2022-08-03T03:10:53;22.50;1.00
22578;DHT22;11455;52.390;13.028;2022-08-03T03:13:19;22.50;1.00
22578;DHT22;11455;52.390;13.028;2022-08-03T03:15:46;22.60;1.00
22578;DHT22;11455;52.390;13.028;2022-08-03T03:18:13;22.50;1.00
22578;DHT22;11455;52.390;13.028;2022-08-03T03:20:39;22.60;1.00
22578;DHT22;11455;52.390;13.028;2022-08-03T03:23:07;22.60;1.00
22578;DHT22;11455;52.390;13.028;2022-08-03T03:25:33;22.60;1.00
22578;DHT22;11455;52.390;13.028;2022-08-03T03:28:00;22.70;1.00
22578;DHT22;11455;52.390;13.028;2022-08-03T03:30:26;22.70;1.00
22578;DHT22;11455;52.390;13.028;2022-08-03T03:32:53;22.70;1.00
22578;DHT22;11455;52.390;13.028;2022-08-03T03:35:19;22.60;1.00
22578;DHT22;11455;52.390;13.028;2022-08-03T03:37:45;22.70;1.00
22578;DHT22;11455;52.390;13.028;2022-08-03T03:40:11;22.70;1.00
22578;DHT22;11455;52.390;13.028;2022-08-03T03:42:36;22.70;1.00
22578;DHT22;11455;52.390;13.028;2022-08-03T03:45:08;22.70;1.00
22578;DHT22;11455;52.390;13.028;2022-08-03T03:47:34;22.70;1.00
22578;DHT22;11455;52.390;13.028;2022-08-03T03:50:03;22.70;1.00
22578;DHT22;11455;52.390;13.028;2022-08-03T03:52:30;22.70;1.00
22578;DHT22;11455;52.390;13.028;2022-08-03T03:54:58;22.80;1.00
22578;DHT22;11455;52.390;13.028;2022-08-03T03:57:27;22.80;1.00
22578;DHT22;11455;52.390;13.028;2022-08-03T03:59:52;22.80;1.00
22578;DHT22;11455;52.390;13.028;2022-08-03T04:02:18;22.90;1.00
22578;DHT22;11455;52.390;13.028;2022-08-03T04:04:44;22.90;1.00
22578;DHT22;11455;52.390;13.028;2022-08-03T04:07:28;22.90;1.00
22578;DHT22;11455;52.390;13.028;2022-08-03T04:10:19;22.80;1.00
22578;DHT22;11455;52.390;13.028;2022-08-03T04:13:06;22.60;1.00
22578;DHT22;11455;52.390;13.028;2022-08-03T04:15:34;22.50;1.00
22578;DHT22;11455;52.390;13.028;2022-08-03T04:18:02;22.50;1.00
22578;DHT22;11455;52.390;13.028;2022-08-03T04:20:29;22.50;1.00
22578;DHT22;11455;52.390;13.028;2022-08-03T04:22:54;22.50;1.00
22578;DHT22;11455;52.390;13.028;2022-08-03T04:25:21;22.50;1.00
22578;DHT22;11455;52.390;13.028;2022-08-03T04:27:49;22.50;1.00
22578;DHT22;11455;52.390;13.028;2022-08-03T04:30:17;22.50;1.00
22578;DHT22;11455;52.390;13.028;2022-08-03T04:32:43;22.50;1.00
22578;DHT22;11455;52.390;13.028;2022-08-03T04:35:15;22.50;1.00
22578;DHT22;11455;52.390;13.028;2022-08-03T04:37:41;22.60;1.00
22578;DHT22;11455;52.390;13.028;2022-08-03T04:40:09;22.60;1.00
22578;DHT22;11455;52.390;13.028;2022-08-03T04:42:37;22.60;1.00
22578;DHT22;11455;52.390;13.028;2022-08-03T04:45:05;22.60;1.00
22578;DHT22;11455;52.390;13.028;2022-08-03T04:47:32;22.70;1.00
22578;DHT22;11455;52.390;13.028;2022-08-03T04:50:02;22.70;1.00
22578;DHT22;11455;52.390;13.028;2022-08-03T04:52:28;22.70;1.00
22578;DHT22;11455;52.390;13.028;2022-08-03T04:54:54;22.80;1.00
22578;DHT22;11455;52.390;13.028;2022-08-03T04:57:20;22.90;1.00
22578;DHT22;11455;52.390;13.028;2022-08-03T04:59:46;22.90;1.00
22578;DHT22;11455;52.390;13.028;2022-08-03T05:02:13;22.90;1.00
22578;DHT22;11455;52.390;13.028;2022-08-03T05:04:40;23.00;1.00
22578;DHT22;11455;52.390;13.028;2022-08-03T05:07:11;23.00;1.00
22578;DHT22;11455;52.390;13.028;2022-08-03T05:09:36;23.00;1.00
22578;DHT22;11455;52.390;13.028;2022-08-03T05:12:03;23.00;1.00
22578;DHT22;11455;52.390;13.028;2022-08-03T05:14:28;23.00;1.00
22578;DHT22;11455;52.390;13.028;2022-08-03T05:16:54;23.10;1.00
22578;DHT22;11455;52.390;13.028;2022-08-03T05:19:22;23.10;1.00
22578;DHT22;11455;52.390;13.028;2022-08-03T05:21:48;23.10;1.00
22578;DHT22;11455;52.390;13.028;2022-08-03T05:24:14;23.10;1.00
22578;DHT22;11455;52.390;13.028;2022-08-03T05:26:39;23.20;1.00
22578;DHT22;11455;52.390;13.028;2022-08-03T05:29:05;23.20;1.00
22578;DHT22;11455;52.390;13.028;2022-08-03T05:31:30;23.20;1.00
22578;DHT22;11455;52.390;13.028;2022-08-03T05:33:56;23.20;1.00
22578;DHT22;11455;52.390;13.028;2022-08-03T05:36:22;23.20;1.00
22578;DHT22;11455;52.390;13.028;2022-08-03T05:38:47;23.30;1.00
22578;DHT22;11455;52.390;13.028;2022-08-03T05:41:13;23.30;1.00
22578;DHT22;11455;52.390;13.028;2022-08-03T05:43:38;23.40;1.00
22578;DHT22;11455;52.390;13.028;2022-08-03T05:46:04;23.40;1.00
22578;DHT22;11455;52.390;13.028;2022-08-03T05:48:30;23.40;1.00
22578;DHT22;11455;52.390;13.028;2022-08-03T05:51:01;23.50;1.00
22578;DHT22;11455;52.390;13.028;2022-08-03T05:53:26;23.50;1.00
22578;DHT22;11455;52.390;13.028;2022-08-03T05:55:53;23.50;1.00
22578;DHT22;11455;52.390;13.028;2022-08-03T05:58:19;23.50;1.00
22578;DHT22;11455;52.390;13.028;2022-08-03T06:00:45;23.50;1.00
22578;DHT22;11455;52.390;13.028;2022-08-03T06:03:10;23.60;1.00
22578;DHT22;11455;52.390;13.028;2022-08-03T06:05:36;23.60;1.00
22578;DHT22;11455;52.390;13.028;2022-08-03T06:08:04;23.70;1.00
22578;DHT22;11455;52.390;13.028;2022-08-03T06:10:30;23.70;1.00
22578;DHT22;11455;52.390;13.028;2022-08-03T06:12:55;23.70;1.00
22578;DHT22;11455;52.390;13.028;2022-08-03T06:15:21;23.80;1.00
22578;DHT22;11455;52.390;13.028;2022-08-03T06:17:47;23.80;1.00
22578;DHT22;11455;52.390;13.028;2022-08-03T06:20:17;23.90;1.00
22578;DHT22;11455;52.390;13.028;2022-08-03T06:22:43;23.90;1.00
22578;DHT22;11455;52.390;13.028;2022-08-03T06:25:09;23.90;1.00
22578;DHT22;11455;52.390;13.028;2022-08-03T06:27:34;23.90;1.00
22578;DHT22;11455;52.390;13.028;2022-08-03T06:30:05;24.00;1.00
22578;DHT22;11455;52.390;13.028;2022-08-03T06:32:31;24.00;1.00
22578;DHT22;11455;52.390;13.028;2022-08-03T06:34:58;24.10;1.00
22578;DHT22;11455;52.390;13.028;2022-08-03T06:37:23;24.10;1.00
22578;DHT22;11455;52.390;13.028;2022-08-03T06:39:52;24.20;1.00
22578;DHT22;11455;52.390;13.028;2022-08-03T06:42:19;24.20;1.00
22578;DHT22;11455;52.390;13.028;2022-08-03T06:44:48;24.30;1.00
22578;DHT22;11455;52.390;13.028;2022-08-03T06:47:15;24.30;1.00
22578;DHT22;11455;52.390;13.028;2022-08-03T06:49:41;24.30;1.00
22578;DHT22;11455;52.390;13.028;2022-08-03T06:52:07;24.40;1.00
22578;DHT22;11455;52.390;13.028;2022-08-03T06:54:32;24.50;1.00
22578;DHT22;11455;52.390;13.028;2022-08-03T06:56:58;24.50;1.00
22578;DHT22;11455;52.390;13.028;2022-08-03T06:59:24;24.60;1.00
22578;DHT22;11455;52.390;13.028;2022-08-03T07:01:49;24.60;1.00
22578;DHT22;11455;52.390;13.028;2022-08-03T07:04:15;24.70;1.00
22578;DHT22;11455;52.390;13.028;2022-08-03T07:06:40;24.70;1.00
22578;DHT22;11455;52.390;13.028;2022-08-03T07:09:06;24.80;1.00
22578;DHT22;11455;52.390;13.028;2022-08-03T07:11:32;24.90;1.00
22578;DHT22;11455;52.390;13.028;2022-08-03T07:13:58;24.90;1.00
22578;DHT22;11455;52.390;13.028;2022-08-03T07:16:24;25.00;1.00
22578;DHT22;11455;52.390;13.028;2022-08-03T07:18:50;25.00;1.00
22578;DHT22;11455;52.390;13.028;2022-08-03T07:21:15;25.10;1.00
22578;DHT22;11455;52.390;13.028;2022-08-03T07:23:41;25.20;1.00
22578;DHT22;11455;52.390;13.028;2022-08-03T07:26:09;25.20;1.00
22578;DHT22;11455;52.390;13.028;2022-08-03T07:28:35;25.30;1.00
22578;DHT22;11455;52.390;13.028;2022-08-03T07:31:02;25.40;1.00
22578;DHT22;11455;52.390;13.028;2022-08-03T07:33:27;25.40;1.00
22578;DHT22;11455;52.390;13.028;2022-08-03T07:35:53;25.50;1.00
22578;DHT22;11455;52.390;13.028;2022-08-03T07:38:18;25.60;1.00
22578;DHT22;11455;52.390;13.028;2022-08-03T07:40:44;25.60;1.00
22578;DHT22;11455;52.390;13.028;2022-08-03T07:43:10;25.70;1.00
22578;DHT22;11455;52.390;13.028;2022-08-03T07:45:35;25.70;1.00
22578;DHT22;11455;52.390;13.028;2022-08-03T07:48:01;25.80;1.00
22578;DHT22;11455;52.390;13.028;2022-08-03T07:50:27;25.80;1.00
22578;DHT22;11455;52.390;13.028;2022-08-03T07:52:53;25.80;1.00
22578;DHT22;11455;52.390;13.028;2022-08-03T07:55:21;25.90;1.00
22578;DHT22;11455;52.390;13.028;2022-08-03T07:58:04;25.90;99.90
22578;DHT22;11455;52.390;13.028;2022-08-03T08:00:30;26.00;99.90
22578;DHT22;11455;52.390;13.028;2022-08-03T08:02:56;26.10;99.90
22578;DHT22;11455;52.390;13.028;2022-08-03T08:05:22;26.10;99.90
22578;DHT22;11455;52.390;13.028;2022-08-03T08:07:47;26.10;99.90
22578;DHT22;11455;52.390;13.028;2022-08-03T08:10:13;26.20;99.90
22578;DHT22;11455;52.390;13.028;2022-08-03T08:12:39;26.20;99.90
22578;DHT22;11455;52.390;13.028;2022-08-03T08:15:05;26.30;99.90
22578;DHT22;11455;52.390;13.028;2022-08-03T08:17:39;26.40;99.90
22578;DHT22;11455;52.390;13.028;2022-08-03T08:20:05;26.40;99.90
22578;DHT22;11455;52.390;13.028;2022-08-03T08:22:31;26.50;99.90
22578;DHT22;11455;52.390;13.028;2022-08-03T08:24:57;26.50;99.90
22578;DHT22;11455;52.390;13.028;2022-08-03T08:27:23;26.60;99.90
22578;DHT22;11455;52.390;13.028;2022-08-03T08:29:49;26.60;99.90
22578;DHT22;11455;52.390;13.028;2022-08-03T08:32:14;26.70;99.90
22578;DHT22;11455;52.390;13.028;2022-08-03T08:34:40;26.80;99.90
22578;DHT22;11455;52.390;13.028;2022-08-03T08:37:06;26.80;99.90
22578;DHT22;11455;52.390;13.028;2022-08-03T08:39:32;26.80;99.90
22578;DHT22;11455;52.390;13.028;2022-08-03T08:41:59;26.90;99.90
22578;DHT22;11455;52.390;13.028;2022-08-03T08:44:25;27.00;99.90
22578;DHT22;11455;52.390;13.028;2022-08-03T08:46:51;27.10;99.90
22578;DHT22;11455;52.390;13.028;2022-08-03T08:49:17;27.10;99.90
22578;DHT22;11455;52.390;13.028;2022-08-03T08:51:47;27.20;99.90
22578;DHT22;11455;52.390;13.028;2022-08-03T08:54:16;27.20;99.90
22578;DHT22;11455;52.390;13.028;2022-08-03T08:56:42;27.40;99.90
22578;DHT22;11455;52.390;13.028;2022-08-03T08:59:09;27.40;99.90
22578;DHT22;11455;52.390;13.028;2022-08-03T09:01:35;27.40;99.90
22578;DHT22;11455;52.390;13.028;2022-08-03T09:04:19;27.50;99.90
22578;DHT22;11455;52.390;13.028;2022-08-03T09:06:44;27.60;99.90
22578;DHT22;11455;52.390;13.028;2022-08-03T09:09:10;27.60;99.90
22578;DHT22;11455;52.390;13.028;2022-08-03T09:11:36;27.70;99.90
22578;DHT22;11455;52.390;13.028;2022-08-03T09:14:02;27.80;99.90
22578;DHT22;11455;52.390;13.028;2022-08-03T09:16:32;27.80;99.90
22578;DHT22;11455;52.390;13.028;2022-08-03T09:19:02;28.00;99.90
22578;DHT22;11455;52.390;13.028;2022-08-03T09:21:36;28.00;99.90
22578;DHT22;11455;52.390;13.028;2022-08-03T09:24:03;28.10;99.90
22578;DHT22;11455;52.390;13.028;2022-08-03T09:26:33;28.20;99.90
22578;DHT22;11455;52.390;13.028;2022-08-03T09:31:29;28.20;99.90
22578;DHT22;11455;52.390;13.028;2022-08-03T09:33:55;28.20;99.90
22578;DHT22;11455;52.390;13.028;2022-08-03T09:36:40;28.30;99.90
22578;DHT22;11455;52.390;13.028;2022-08-03T09:39:07;28.30;99.90
22578;DHT22;11455;52.390;13.028;2022-08-03T09:41:35;28.40;99.90
22578;DHT22;11455;52.390;13.028;2022-08-03T09:44:00;28.40;99.90
22578;DHT22;11455;52.390;13.028;2022-08-03T09:46:26;28.50;99.90
22578;DHT22;11455;52.390;13.028;2022-08-03T09:49:09;28.50;99.90
22578;DHT22;11455;52.390;13.028;2022-08-03T09:51:35;28.60;99.90
22578;DHT22;11455;52.390;13.028;2022-08-03T09:54:00;28.70;99.90
22578;DHT22;11455;52.390;13.028;2022-08-03T09:59:09;28.80;99.90
22578;DHT22;11455;52.390;13.028;2022-08-03T10:01:35;28.80;99.90
22578;DHT22;11455;52.390;13.028;2022-08-03T10:04:01;28.70;99.90
22578;DHT22;11455;52.390;13.028;2022-08-03T10:06:27;28.70;99.90
22578;DHT22;11455;52.390;13.028;2022-08-03T10:09:09;28.70;99.90
22578;DHT22;11455;52.390;13.028;2022-08-03T10:11:35;28.70;99.90
22578;DHT22;11455;52.390;13.028;2022-08-03T10:14:02;28.80;99.90
22578;DHT22;11455;52.390;13.028;2022-08-03T10:16:32;28.80;99.90
22578;DHT22;11455;52.390;13.028;2022-08-03T10:18:58;28.90;99.90
22578;DHT22;11455;52.390;13.028;2022-08-03T10:21:24;28.90;99.90
22578;DHT22;11455;52.390;13.028;2022-08-03T10:23:50;28.90;99.90
22578;DHT22;11455;52.390;13.028;2022-08-03T10:26:18;28.90;99.90
22578;DHT22;11455;52.390;13.028;2022-08-03T10:28:48;28.90;99.90
22578;DHT22;11455;52.390;13.028;2022-08-03T10:31:13;29.00;99.90
22578;DHT22;11455;52.390;13.028;2022-08-03T10:33:45;29.10;99.90
22578;DHT22;11455;52.390;13.028;2022-08-03T10:36:12;29.10;99.90
22578;DHT22;11455;52.390;13.028;2022-08-03T10:38:39;29.20;99.90
22578;DHT22;11455;52.390;13.028;2022-08-03T10:41:07;29.10;99.90
22578;DHT22;11455;52.390;13.028;2022-08-03T10:43:39;29.10;99.90
22578;DHT22;11455;52.390;13.028;2022-08-03T10:46:06;29.00;99.90
22578;DHT22;11455;52.390;13.028;2022-08-03T10:48:32;29.00;99.90
22578;DHT22;11455;52.390;13.028;2022-08-03T10:51:00;29.00;99.90
22578;DHT22;11455;52.390;13.028;2022-08-03T10:53:36;29.10;99.90
22578;DHT22;11455;52.390;13.028;2022-08-03T10:56:02;29.30;99.90
22578;DHT22;11455;52.390;13.028;2022-08-03T10:58:52;29.40;99.90
22578;DHT22;11455;52.390;13.028;2022-08-03T11:01:47;29.50;99.90
22578;DHT22;11455;52.390;13.028;2022-08-03T11:06:30;29.30;99.90
22578;DHT22;11455;52.390;13.028;2022-08-03T11:11:34;29.40;99.90
22578;DHT22;11455;52.390;13.028;2022-08-03T11:14:04;29.40;99.90
22578;DHT22;11455;52.390;13.028;2022-08-03T11:16:32;29.40;99.90
22578;DHT22;11455;52.390;13.028;2022-08-03T11:19:03;29.50;99.90
22578;DHT22;11455;52.390;13.028;2022-08-03T11:29:52;29.70;99.90
22578;DHT22;11455;52.390;13.028;2022-08-03T11:38:21;29.80;99.90
22578;DHT22;11455;52.390;13.028;2022-08-03T11:40:35;29.80;99.90
22578;DHT22;11455;52.390;13.028;2022-08-03T11:43:02;29.80;99.90
22578;DHT22;11455;52.390;13.028;2022-08-03T11:45:28;29.90;99.90
22578;DHT22;11455;52.390;13.028;2022-08-03T11:47:55;30.00;99.90
22578;DHT22;11455;52.390;13.028;2022-08-03T11:50:23;30.00;99.90
22578;DHT22;11455;52.390;13.028;2022-08-03T11:52:49;30.10;99.90
22578;DHT22;11455;52.390;13.028;2022-08-03T11:55:16;30.20;99.90
22578;DHT22;11455;52.390;13.028;2022-08-03T11:57:45;30.20;99.90
22578;DHT22;11455;52.390;13.028;2022-08-03T12:03:08;30.40;99.90
22578;DHT22;11455;52.390;13.028;2022-08-03T12:05:35;30.60;99.90
22578;DHT22;11455;52.390;13.028;2022-08-03T12:08:01;30.60;99.90
22578;DHT22;11455;52.390;13.028;2022-08-03T12:10:27;30.70;99.90
22578;DHT22;11455;52.390;13.028;2022-08-03T12:12:54;30.70;99.90
22578;DHT22;11455;52.390;13.028;2022-08-03T12:15:27;30.80;99.90
22578;DHT22;11455;52.390;13.028;2022-08-03T12:17:52;30.80;99.90
22578;DHT22;11455;52.390;13.028;2022-08-03T12:20:22;30.80;99.90
22578;DHT22;11455;52.390;13.028;2022-08-03T12:22:48;30.90;99.90
22578;DHT22;11455;52.390;13.028;2022-08-03T12:25:22;31.00;99.90
22578;DHT22;11455;52.390;13.028;2022-08-03T12:27:48;31.10;99.90
22578;DHT22;11455;52.390;13.028;2022-08-03T12:30:14;31.20;99.90
22578;DHT22;11455;52.390;13.028;2022-08-03T12:32:41;31.30;99.90
22578;DHT22;11455;52.390;13.028;2022-08-03T12:35:08;31.40;99.90
22578;DHT22;11455;52.390;13.028;2022-08-03T12:37:34;31.50;99.90
22578;DHT22;11455;52.390;13.028;2022-08-03T12:40:24;31.50;99.90
22578;DHT22;11455;52.390;13.028;2022-08-03T12:42:53;31.60;99.90
22578;DHT22;11455;52.390;13.028;2022-08-03T12:45:31;31.60;99.90
22578;DHT22;11455;52.390;13.028;2022-08-03T12:51:20;31.90;99.90
22578;DHT22;11455;52.390;13.028;2022-08-03T12:54:30;31.90;99.90
22578;DHT22;11455;52.390;13.028;2022-08-03T12:57:01;32.10;99.90
22578;DHT22;11455;52.390;13.028;2022-08-03T12:59:28;32.20;99.90
22578;DHT22;11455;52.390;13.028;2022-08-03T13:01:54;32.30;99.90
22578;DHT22;11455;52.390;13.028;2022-08-03T13:23:14;32.90;99.90
22578;DHT22;11455;52.390;13.028;2022-08-03T13:25:47;33.00;99.90
22578;DHT22;11455;52.390;13.028;2022-08-03T13:28:44;33.10;99.90
22578;DHT22;11455;52.390;13.028;2022-08-03T13:34:54;33.20;99.90
22578;DHT22;11455;52.390;13.028;2022-08-03T13:37:22;33.30;99.90
22578;DHT22;11455;52.390;13.028;2022-08-03T13:39:47;33.40;99.90
22578;DHT22;11455;52.390;13.028;2022-08-03T13:42:14;33.50;99.90
22578;DHT22;11455;52.390;13.028;2022-08-03T13:44:40;33.50;99.90
22578;DHT22;11455;52.390;13.028;2022-08-03T13:47:05;33.60;99.90
22578;DHT22;11455;52.390;13.028;2022-08-03T13:49:31;33.70;99.90
22578;DHT22;11455;52.390;13.028;2022-08-03T13:51:56;33.80;99.90
22578;DHT22;11455;52.390;13.028;2022-08-03T13:54:22;33.80;99.90
22578;DHT22;11455;52.390;13.028;2022-08-03T13:56:50;33.90;99.90
22578;DHT22;11455;52.390;13.028;2022-08-03T13:59:19;33.90;99.90
22578;DHT22;11455;52.390;13.028;2022-08-03T14:01:47;33.90;99.90
22578;DHT22;11455;52.390;13.028;2022-08-03T14:04:13;34.00;99.90
22578;DHT22;11455;52.390;13.028;2022-08-03T14:06:39;34.00;99.90
22578;DHT22;11455;52.390;13.028;2022-08-03T14:09:05;34.10;99.90
22578;DHT22;11455;52.390;13.028;2022-08-03T14:11:30;34.10;99.90
22578;DHT22;11455;52.390;13.028;2022-08-03T14:13:56;34.10;99.90
22578;DHT22;11455;52.390;13.028;2022-08-03T14:16:22;34.00;99.90
22578;DHT22;11455;52.390;13.028;2022-08-03T14:18:47;34.00;99.90
22578;DHT22;11455;52.390;13.028;2022-08-03T14:21:13;34.00;99.90
22578;DHT22;11455;52.390;13.028;2022-08-03T14:23:39;34.10;99.90
22578;DHT22;11455;52.390;13.028;2022-08-03T14:26:04;34.10;99.90
22578;DHT22;11455;52.390;13.028;2022-08-03T14:28:33;34.20;99.90
22578;DHT22;11455;52.390;13.028;2022-08-03T14:30:59;34.30;99.90
22578;DHT22;11455;52.390;13.028;2022-08-03T14:33:25;34.40;99.90
22578;DHT22;11455;52.390;13.028;2022-08-03T14:35:52;34.50;99.90
22578;DHT22;11455;52.390;13.028;2022-08-03T14:38:18;34.50;99.90
22578;DHT22;11455;52.390;13.028;2022-08-03T14:40:44;34.50;99.90
22578;DHT22;11455;52.390;13.028;2022-08-03T14:43:10;34.30;99.90
22578;DHT22;11455;52.390;13.028;2022-08-03T14:45:36;34.30;99.90
22578;DHT22;11455;52.390;13.028;2022-08-03T14:48:02;34.30;99.90
22578;DHT22;11455;52.390;13.028;2022-08-03T14:50:29;34.30;99.90
22578;DHT22;11455;52.390;13.028;2022-08-03T14:52:55;34.30;99.90
22578;DHT22;11455;52.390;13.028;2022-08-03T14:55:23;34.40;99.90
22578;DHT22;11455;52.390;13.028;2022-08-03T14:57:51;34.40;99.90
22578;DHT22;11455;52.390;13.028;2022-08-03T15:00:18;34.40;99.90
22578;DHT22;11455;52.390;13.028;2022-08-03T15:02:47;34.40;99.90
22578;DHT22;11455;52.390;13.028;2022-08-03T15:05:12;34.40;99.90
22578;DHT22;11455;52.390;13.028;2022-08-03T15:07:39;34.40;99.90
22578;DHT22;11455;52.390;13.028;2022-08-03T15:10:05;34.30;99.90
22578;DHT22;11455;52.390;13.028;2022-08-03T15:12:31;34.20;99.90
22578;DHT22;11455;52.390;13.028;2022-08-03T15:14:59;34.20;99.90
22578;DHT22;11455;52.390;13.028;2022-08-03T15:17:24;34.10;99.90
22578;DHT22;11455;52.390;13.028;2022-08-03T15:19:52;34.10;99.90
22578;DHT22;11455;52.390;13.028;2022-08-03T15:22:18;34.10;99.90
22578;DHT22;11455;52.390;13.028;2022-08-03T15:24:43;34.10;99.90
22578;DHT22;11455;52.390;13.028;2022-08-03T15:27:09;34.00;99.90
22578;DHT22;11455;52.390;13.028;2022-08-03T15:29:35;34.00;99.90
22578;DHT22;11455;52.390;13.028;2022-08-03T15:32:00;33.90;99.90
22578;DHT22;11455;52.390;13.028;2022-08-03T15:34:26;33.90;99.90
22578;DHT22;11455;52.390;13.028;2022-08-03T15:36:51;33.90;99.90
22578;DHT22;11455;52.390;13.028;2022-08-03T15:39:17;33.90;99.90
22578;DHT22;11455;52.390;13.028;2022-08-03T15:41:43;33.90;99.90
22578;DHT22;11455;52.390;13.028;2022-08-03T15:44:09;33.70;99.90
22578;DHT22;11455;52.390;13.028;2022-08-03T15:46:37;33.80;99.90
22578;DHT22;11455;52.390;13.028;2022-08-03T15:49:03;33.90;99.90
22578;DHT22;11455;52.390;13.028;2022-08-03T15:51:30;33.90;99.90
22578;DHT22;11455;52.390;13.028;2022-08-03T15:53:55;33.90;99.90
22578;DHT22;11455;52.390;13.028;2022-08-03T15:56:22;33.90;99.90
22578;DHT22;11455;52.390;13.028;2022-08-03T15:58:47;33.90;99.90
22578;DHT22;11455;52.390;13.028;2022-08-03T16:01:13;33.80;99.90
22578;DHT22;11455;52.390;13.028;2022-08-03T16:03:39;33.80;99.90
22578;DHT22;11455;52.390;13.028;2022-08-03T16:06:05;33.90;99.90
22578;DHT22;11455;52.390;13.028;2022-08-03T16:08:31;33.80;99.90
22578;DHT22;11455;52.390;13.028;2022-08-03T16:10:57;33.70;99.90
22578;DHT22;11455;52.390;13.028;2022-08-03T16:13:23;33.70;99.90
22578;DHT22;11455;52.390;13.028;2022-08-03T16:15:49;33.80;99.90
22578;DHT22;11455;52.390;13.028;2022-08-03T16:18:14;33.80;99.90
22578;DHT22;11455;52.390;13.028;2022-08-03T16:20:40;33.70;99.90
22578;DHT22;11455;52.390;13.028;2022-08-03T16:23:06;33.80;99.90
22578;DHT22;11455;52.390;13.028;2022-08-03T16:25:32;33.80;99.90